sensor_id;sensor_type;location;lat;lon;timestamp;pressure;altitude;pressure_sealevel;temperature;humidity
63731;BME280;49747;51.334;6.830;2022-10-31T00:01:15;101563.97;;;18.08;79.89
63731;BME280;49747;51.334;6.830;2022-10-31T00:03:42;101575.00;;;18.14;79.82
63731;BME280;49747;51.334;6.830;2022-10-31T00:06:09;101578.53;;;18.15;79.86
63731;BME280;49747;51.334;6.830;2022-10-31T00:08:35;101572.31;;;18.14;79.78
63731;BME280;49747;51.334;6.830;2022-10-31T00:11:02;101572.31;;;18.14;79.89
63731;BME280;49747;51.334;6.830;2022-10-31T00:13:29;101572.31;;;18.14;79.67
63731;BME280;49747;51.334;6.830;2022-10-31T00:15:55;101581.22;;;18.15;79.69
63731;BME280;49747;51.334;6.830;2022-10-31T00:18:22;101561.84;;;18.11;79.73
63731;BME280;49747;51.334;6.830;2022-10-31T00:20:48;101574.13;;;18.14;79.71
63731;BME280;49747;51.334;6.830;2022-10-31T00:23:15;101576.84;;;18.14;79.56
63731;BME280;49747;51.334;6.830;2022-10-31T00:25:41;101577.69;;;18.14;79.58
63731;BME280;49747;51.334;6.830;2022-10-31T00:28:09;101563.53;;;18.12;79.66
63731;BME280;49747;51.334;6.830;2022-10-31T00:30:37;101559.84;;;18.04;79.76
63731;BME280;49747;51.334;6.830;2022-10-31T00:33:04;101572.44;;;18.13;79.56
63731;BME280;49747;51.334;6.830;2022-10-31T00:35:31;101577.97;;;18.11;79.71
63731;BME280;49747;51.334;6.830;2022-10-31T00:37:58;101574.41;;;18.11;79.59
63731;BME280;49747;51.334;6.830;2022-10-31T00:40:25;101587.00;;;18.10;79.91
63731;BME280;49747;51.334;6.830;2022-10-31T00:42:52;101570.19;;;18.08;79.59
63731;BME280;49747;51.334;6.830;2022-10-31T00:45:19;101582.91;;;18.06;79.36
63731;BME280;49747;51.334;6.830;2022-10-31T00:47:46;101574.84;;;18.06;79.55
63731;BME280;49747;51.334;6.830;2022-10-31T00:50:12;101579.63;;;18.03;79.50
63731;BME280;49747;51.334;6.830;2022-10-31T00:52:39;101574.41;;;18.01;79.49
63731;BME280;49747;51.334;6.830;2022-10-31T00:55:06;101580.78;;;18.00;79.68
63731;BME280;49747;51.334;6.830;2022-10-31T00:57:32;101582.63;;;18.00;79.88
63731;BME280;49747;51.334;6.830;2022-10-31T00:59:59;101590.97;;;17.96;79.69
63731;BME280;49747;51.334;6.830;2022-10-31T01:02:27;101582.03;;;17.96;79.80
63731;BME280;49747;51.334;6.830;2022-10-31T01:04:53;101584.84;;;17.94;80.06
63731;BME280;49747;51.334;6.830;2022-10-31T01:07:20;101591.97;;;17.95;80.18
63731;BME280;49747;51.334;6.830;2022-10-31T01:09:47;101581.88;;;17.88;80.66
63731;BME280;49747;51.334;6.830;2022-10-31T01:12:14;101585.00;;;17.93;80.69
63731;BME280;49747;51.334;6.830;2022-10-31T01:14:44;101583.56;;;17.89;80.71
63731;BME280;49747;51.334;6.830;2022-10-31T01:17:12;101594.06;;;17.92;80.82
63731;BME280;49747;51.334;6.830;2022-10-31T01:19:39;101585.16;;;17.91;80.76
63731;BME280;49747;51.334;6.830;2022-10-31T01:22:06;101593.91;;;17.93;80.72
63731;BME280;49747;51.334;6.830;2022-10-31T01:24:32;101598.44;;;17.93;80.83
63731;BME280;49747;51.334;6.830;2022-10-31T01:27:01;101604.09;;;17.90;80.77
63731;BME280;49747;51.334;6.830;2022-10-31T01:29:27;101594.34;;;17.89;81.16
63731;BME280;49747;51.334;6.830;2022-10-31T01:31:53;101596.19;;;17.88;81.29
63731;BME280;49747;51.334;6.830;2022-10-31T01:34:20;101594.34;;;17.89;81.47
63731;BME280;49747;51.334;6.830;2022-10-31T01:36:46;101577.63;;;17.85;81.62
63731;BME280;49747;51.334;6.830;2022-10-31T01:39:17;101579.06;;;17.89;81.59
63731;BME280;49747;51.334;6.830;2022-10-31T01:41:50;101576.63;;;17.86;81.46
63731;BME280;49747;51.334;6.830;2022-10-31T01:46:52;101581.03;;;17.87;81.23
63731;BME280;49747;51.334;6.830;2022-10-31T01:49:26;101571.41;;;17.85;81.13
63731;BME280;49747;51.334;6.830;2022-10-31T01:51:58;101571.53;;;17.83;81.02
63731;BME280;49747;51.334;6.830;2022-10-31T01:54:31;101566.28;;;17.82;80.97
63731;BME280;49747;51.334;6.830;2022-10-31T01:57:01;101561.19;;;17.79;80.98
63731;BME280;49747;51.334;6.830;2022-10-31T01:59:30;101558.50;;;17.79;81.00
63731;BME280;49747;51.334;6.830;2022-10-31T02:02:00;101552.09;;;17.70;81.00
63731;BME280;49747;51.334;6.830;2022-10-31T02:04:27;101558.03;;;17.73;81.13
63731;BME280;49747;51.334;6.830;2022-10-31T02:07:07;101558.03;;;17.73;80.99
63731;BME280;49747;51.334;6.830;2022-10-31T02:09:37;101549.53;;;17.68;80.97
63731;BME280;49747;51.334;6.830;2022-10-31T02:12:04;101548.69;;;17.68;81.15
63731;BME280;49747;51.334;6.830;2022-10-31T02:14:31;101550.53;;;17.67;81.22
63731;BME280;49747;51.334;6.830;2022-10-31T02:16:58;101553.34;;;17.66;81.27
63731;BME280;49747;51.334;6.830;2022-10-31T02:19:36;101554.47;;;17.63;81.25
63731;BME280;49747;51.334;6.830;2022-10-31T02:22:18;101553.75;;;17.61;81.01
63731;BME280;49747;51.334;6.830;2022-10-31T02:25:22;101563.78;;;17.59;81.11
63731;BME280;49747;51.334;6.830;2022-10-31T02:36:31;101566.28;;;17.51;80.75
63731;BME280;49747;51.334;6.830;2022-10-31T02:39:25;101570.13;;;17.48;80.75
63731;BME280;49747;51.334;6.830;2022-10-31T02:42:09;101570.38;;;17.45;80.99
63731;BME280;49747;51.334;6.830;2022-10-31T02:44:47;101566.00;;;17.44;81.51
63731;BME280;49747;51.334;6.830;2022-10-31T02:47:38;101553.56;;;17.43;81.48
63731;BME280;49747;51.334;6.830;2022-10-31T02:50:15;101564.31;;;17.43;81.64
63731;BME280;49747;51.334;6.830;2022-10-31T02:52:50;101568.81;;;17.43;81.61
63731;BME280;49747;51.334;6.830;2022-10-31T02:58:01;101569.69;;;17.43;81.61
63731;BME280;49747;51.334;6.830;2022-10-31T03:00:37;101562.59;;;17.42;81.38
63731;BME280;49747;51.334;6.830;2022-10-31T03:03:14;101558.22;;;17.41;81.37
63731;BME280;49747;51.334;6.830;2022-10-31T03:08:56;101566.69;;;17.37;81.03
63731;BME280;49747;51.334;6.830;2022-10-31T03:15:03;101563.25;;;17.35;80.83
63731;BME280;49747;51.334;6.830;2022-10-31T03:20:15;101566.50;;;17.29;80.60
63731;BME280;49747;51.334;6.830;2022-10-31T03:22:44;101561.97;;;17.29;80.75
63731;BME280;49747;51.334;6.830;2022-10-31T03:25:11;101564.81;;;17.28;80.74
63731;BME280;49747;51.334;6.830;2022-10-31T03:27:42;101559.81;;;17.23;80.51
63731;BME280;49747;51.334;6.830;2022-10-31T03:30:11;101562.38;;;17.24;80.51
63731;BME280;49747;51.334;6.830;2022-10-31T03:32:59;101552.03;;;17.20;80.39
63731;BME280;49747;51.334;6.830;2022-10-31T03:35:30;101554.72;;;17.20;80.32
63731;BME280;49747;51.334;6.830;2022-10-31T03:37:59;101552.41;;;17.15;80.19
63731;BME280;49747;51.334;6.830;2022-10-31T03:40:35;101554.41;;;17.13;80.40
63731;BME280;49747;51.334;6.830;2022-10-31T03:43:06;101551.72;;;17.13;80.40
63731;BME280;49747;51.334;6.830;2022-10-31T03:45:40;101543.91;;;17.10;80.40
63731;BME280;49747;51.334;6.830;2022-10-31T03:48:08;101544.06;;;17.09;80.38
63731;BME280;49747;51.334;6.830;2022-10-31T03:53:55;101560.88;;;17.11;80.17
63731;BME280;49747;51.334;6.830;2022-10-31T03:56:29;101562.97;;;17.07;80.10
63731;BME280;49747;51.334;6.830;2022-10-31T03:59:09;101561.28;;;17.06;79.98
63731;BME280;49747;51.334;6.830;2022-10-31T04:01:43;101550.53;;;17.06;80.09
63731;BME280;49747;51.334;6.830;2022-10-31T04:04:11;101556.91;;;17.05;79.97
63731;BME280;49747;51.334;6.830;2022-10-31T04:06:40;101560.56;;;17.04;80.01
63731;BME280;49747;51.334;6.830;2022-10-31T04:09:09;101555.31;;;17.03;79.86
63731;BME280;49747;51.334;6.830;2022-10-31T04:11:40;101551.78;;;17.02;80.01
63731;BME280;49747;51.334;6.830;2022-10-31T04:14:33;101538.63;;;16.99;79.85
63731;BME280;49747;51.334;6.830;2022-10-31T04:17:01;101543.03;;;17.00;79.99
63731;BME280;49747;51.334;6.830;2022-10-31T04:19:34;101549.38;;;16.99;80.01
63731;BME280;49747;51.334;6.830;2022-10-31T04:22:01;101545.38;;;16.93;79.94
63731;BME280;49747;51.334;6.830;2022-10-31T04:24:28;101551.19;;;16.98;80.15
63731;BME280;49747;51.334;6.830;2022-10-31T04:26:54;101550.34;;;16.98;79.97
63731;BME280;49747;51.334;6.830;2022-10-31T04:29:22;101553.19;;;16.96;80.59
63731;BME280;49747;51.334;6.830;2022-10-31T04:31:48;101552.59;;;16.93;80.10
63731;BME280;49747;51.334;6.830;2022-10-31T04:34:16;101546.22;;;16.94;80.15
63731;BME280;49747;51.334;6.830;2022-10-31T04:36:42;101538.44;;;16.91;80.17
63731;BME280;49747;51.334;6.830;2022-10-31T04:39:09;101545.25;;;16.95;80.36
63731;BME280;49747;51.334;6.830;2022-10-31T04:41:52;101542.69;;;16.93;80.23
63731;BME280;49747;51.334;6.830;2022-10-31T04:44:19;101543.56;;;16.94;80.32
63731;BME280;49747;51.334;6.830;2022-10-31T04:46:49;101550.63;;;16.95;80.34
63731;BME280;49747;51.334;6.830;2022-10-31T04:49:16;101548.06;;;16.93;80.48
63731;BME280;49747;51.334;6.830;2022-10-31T04:51:42;101540.16;;;16.92;80.48
63731;BME280;49747;51.334;6.830;2022-10-31T04:54:09;101533.81;;;16.93;80.58
63731;BME280;49747;51.334;6.830;2022-10-31T04:56:53;101535.50;;;16.94;80.13
63731;BME280;49747;51.334;6.830;2022-10-31T04:59:21;101533.91;;;16.91;79.92
63731;BME280;49747;51.334;6.830;2022-10-31T05:01:52;101515.81;;;16.84;79.49
63731;BME280;49747;51.334;6.830;2022-10-31T05:04:37;101532.22;;;16.90;79.90
63731;BME280;49747;51.334;6.830;2022-10-31T05:07:04;101529.69;;;16.89;80.10
63731;BME280;49747;51.334;6.830;2022-10-31T05:09:30;101532.38;;;16.89;79.78
63731;BME280;49747;51.334;6.830;2022-10-31T05:11:57;101533.38;;;16.88;79.80
63731;BME280;49747;51.334;6.830;2022-10-31T05:14:53;101526.28;;;16.87;79.89
63731;BME280;49747;51.334;6.830;2022-10-31T05:17:38;101519.34;;;16.84;80.02
63731;BME280;49747;51.334;6.830;2022-10-31T05:20:28;101508.72;;;16.83;79.97
63731;BME280;49747;51.334;6.830;2022-10-31T05:23:13;101508.63;;;16.84;79.91
63731;BME280;49747;51.334;6.830;2022-10-31T05:25:40;101508.03;;;16.81;79.76
63731;BME280;49747;51.334;6.830;2022-10-31T05:28:07;101506.06;;;16.83;79.71
63731;BME280;49747;51.334;6.830;2022-10-31T05:30:34;101506.19;;;16.81;79.82
63731;BME280;49747;51.334;6.830;2022-10-31T05:33:02;101513.41;;;16.81;79.76
63731;BME280;49747;51.334;6.830;2022-10-31T05:35:47;101516.94;;;16.81;79.70
63731;BME280;49747;51.334;6.830;2022-10-31T05:38:26;101522.44;;;16.80;79.92
63731;BME280;49747;51.334;6.830;2022-10-31T05:40:57;101520.72;;;16.79;79.92
63731;BME280;49747;51.334;6.830;2022-10-31T05:43:24;101521.44;;;16.81;79.71
63731;BME280;49747;51.334;6.830;2022-10-31T05:45:52;101523.41;;;16.79;79.36
63731;BME280;49747;51.334;6.830;2022-10-31T05:48:39;101517.31;;;16.77;79.62
63731;BME280;49747;51.334;6.830;2022-10-31T05:51:24;101505.75;;;16.76;79.71
63731;BME280;49747;51.334;6.830;2022-10-31T05:53:51;101509.28;;;16.77;79.39
63731;BME280;49747;51.334;6.830;2022-10-31T05:56:18;101510.25;;;16.75;79.35
63731;BME280;49747;51.334;6.830;2022-10-31T05:58:44;101512.22;;;16.73;79.52
63731;BME280;49747;51.334;6.830;2022-10-31T06:01:10;101501.47;;;16.73;79.47
63731;BME280;49747;51.334;6.830;2022-10-31T06:03:37;101501.59;;;16.72;79.35
63731;BME280;49747;51.334;6.830;2022-10-31T06:06:07;101507.91;;;16.71;79.49
63731;BME280;49747;51.334;6.830;2022-10-31T06:08:40;101500.72;;;16.71;79.45
63731;BME280;49747;51.334;6.830;2022-10-31T06:11:12;101505.25;;;16.71;79.80
63731;BME280;49747;51.334;6.830;2022-10-31T06:14:05;101496.50;;;16.69;79.50
63731;BME280;49747;51.334;6.830;2022-10-31T06:16:49;101504.53;;;16.69;79.45
63731;BME280;49747;51.334;6.830;2022-10-31T06:19:42;101501.84;;;16.69;79.27
63731;BME280;49747;51.334;6.830;2022-10-31T06:22:11;101503.69;;;16.68;79.30
63731;BME280;49747;51.334;6.830;2022-10-31T06:24:38;101500.16;;;16.68;79.26
63731;BME280;49747;51.334;6.830;2022-10-31T06:27:23;101500.28;;;16.66;79.27
63731;BME280;49747;51.334;6.830;2022-10-31T06:29:50;101518.94;;;16.68;79.02
63731;BME280;49747;51.334;6.830;2022-10-31T06:32:30;101506.47;;;16.67;79.09
63731;BME280;49747;51.334;6.830;2022-10-31T06:34:57;101502.94;;;16.66;79.10
63731;BME280;49747;51.334;6.830;2022-10-31T06:37:24;101500.28;;;16.66;79.00
63731;BME280;49747;51.334;6.830;2022-10-31T06:39:52;101505.31;;;16.39;79.10
63731;BME280;49747;51.334;6.830;2022-10-31T06:42:19;101507.28;;;16.05;80.84
63731;BME280;49747;51.334;6.830;2022-10-31T06:44:46;101512.09;;;15.79;81.90
63731;BME280;49747;51.334;6.830;2022-10-31T06:47:54;101511.28;;;15.67;83.45
63731;BME280;49747;51.334;6.830;2022-10-31T06:50:30;101511.84;;;15.59;83.84
63731;BME280;49747;51.334;6.830;2022-10-31T06:52:58;101513.97;;;15.44;85.02
63731;BME280;49747;51.334;6.830;2022-10-31T06:55:26;101511.16;;;15.35;85.25
63731;BME280;49747;51.334;6.830;2022-10-31T06:57:53;101522.09;;;15.32;86.35
63731;BME280;49747;51.334;6.830;2022-10-31T07:00:29;101510.06;;;15.26;85.94
63731;BME280;49747;51.334;6.830;2022-10-31T07:03:09;101525.38;;;15.24;86.36
63731;BME280;49747;51.334;6.830;2022-10-31T07:05:36;101516.03;;;15.18;86.76
63731;BME280;49747;51.334;6.830;2022-10-31T07:08:05;101525.03;;;15.17;86.82
63731;BME280;49747;51.334;6.830;2022-10-31T07:10:34;101516.41;;;15.14;86.88
63731;BME280;49747;51.334;6.830;2022-10-31T07:13:10;101520.91;;;15.13;87.78
63731;BME280;49747;51.334;6.830;2022-10-31T07:15:39;101522.59;;;15.14;87.31
63731;BME280;49747;51.334;6.830;2022-10-31T07:18:07;101526.13;;;15.15;87.18
63731;BME280;49747;51.334;6.830;2022-10-31T07:20:34;101525.16;;;15.16;87.70
63731;BME280;49747;51.334;6.830;2022-10-31T07:23:02;101533.31;;;15.14;87.96
63731;BME280;49747;51.334;6.830;2022-10-31T07:25:31;101531.47;;;15.15;87.88
63731;BME280;49747;51.334;6.830;2022-10-31T07:28:03;101534.53;;;15.21;88.30
63731;BME280;49747;51.334;6.830;2022-10-31T07:30:30;101525.03;;;15.17;88.41
63731;BME280;49747;51.334;6.830;2022-10-31T07:32:57;101528.19;;;15.22;88.50
63731;BME280;49747;51.334;6.830;2022-10-31T07:35:32;101530.16;;;15.20;88.75
63731;BME280;49747;51.334;6.830;2022-10-31T07:38:07;101523.69;;;15.23;88.44
63731;BME280;49747;51.334;6.830;2022-10-31T07:40:33;101517.72;;;15.19;88.87
63731;BME280;49747;51.334;6.830;2022-10-31T07:43:01;101528.69;;;15.27;88.98
63731;BME280;49747;51.334;6.830;2022-10-31T07:45:59;101532.56;;;15.35;88.89
63731;BME280;49747;51.334;6.830;2022-10-31T07:48:54;101522.72;;;15.35;88.55
63731;BME280;49747;51.334;6.830;2022-10-31T07:51:50;101535.50;;;15.43;88.74
63731;BME280;49747;51.334;6.830;2022-10-31T07:54:35;101528.66;;;15.61;88.38
63731;BME280;49747;51.334;6.830;2022-10-31T07:57:01;101539.41;;;15.72;88.07
63731;BME280;49747;51.334;6.830;2022-10-31T07:59:28;101541.81;;;15.75;88.26
63731;BME280;49747;51.334;6.830;2022-10-31T08:01:54;101546.59;;;15.72;89.00
63731;BME280;49747;51.334;6.830;2022-10-31T08:04:29;101546.09;;;15.78;88.64
63731;BME280;49747;51.334;6.830;2022-10-31T08:07:16;101534.75;;;15.86;87.34
63731;BME280;49747;51.334;6.830;2022-10-31T08:09:49;101535.56;;;15.97;87.35
63731;BME280;49747;51.334;6.830;2022-10-31T08:12:23;101534.41;;;16.11;86.97
63731;BME280;49747;51.334;6.830;2022-10-31T08:14:51;101531.91;;;16.31;85.93
63731;BME280;49747;51.334;6.830;2022-10-31T08:17:18;101531.22;;;16.70;84.33
63731;BME280;49747;51.334;6.830;2022-10-31T08:19:51;101529.88;;;16.97;83.85
63731;BME280;49747;51.334;6.830;2022-10-31T08:22:23;101534.19;;;17.40;81.56
63731;BME280;49747;51.334;6.830;2022-10-31T08:24:49;101516.47;;;17.68;79.77
63731;BME280;49747;51.334;6.830;2022-10-31T08:27:16;101527.59;;;18.13;78.36
63731;BME280;49747;51.334;6.830;2022-10-31T08:29:43;101522.66;;;18.28;77.21
63731;BME280;49747;51.334;6.830;2022-10-31T08:32:12;101525.28;;;18.96;75.13
63731;BME280;49747;51.334;6.830;2022-10-31T08:34:56;101510.84;;;19.62;72.42
63731;BME280;49747;51.334;6.830;2022-10-31T08:37:41;101516.06;;;20.09;70.32
63731;BME280;49747;51.334;6.830;2022-10-31T08:40:09;101514.47;;;20.52;69.16
63731;BME280;49747;51.334;6.830;2022-10-31T08:42:35;101518.34;;;20.75;69.08
63731;BME280;49747;51.334;6.830;2022-10-31T08:45:02;101511.88;;;20.94;68.72
63731;BME280;49747;51.334;6.830;2022-10-31T08:47:31;101504.56;;;21.12;67.81
63731;BME280;49747;51.334;6.830;2022-10-31T08:49:57;101502.56;;;21.49;66.14
63731;BME280;49747;51.334;6.830;2022-10-31T08:52:24;101496.03;;;21.68;65.46
63731;BME280;49747;51.334;6.830;2022-10-31T08:55:11;101499.81;;;21.83;64.27
63731;BME280;49747;51.334;6.830;2022-10-31T08:57:57;101499.75;;;21.58;64.47
63731;BME280;49747;51.334;6.830;2022-10-31T09:00:34;101498.28;;;21.38;65.23
63731;BME280;49747;51.334;6.830;2022-10-31T09:03:16;101494.81;;;21.20;66.43
63731;BME280;49747;51.334;6.830;2022-10-31T09:05:43;101492.28;;;20.66;67.41
63731;BME280;49747;51.334;6.830;2022-10-31T09:08:11;101498.88;;;20.63;68.88
63731;BME280;49747;51.334;6.830;2022-10-31T09:10:43;101488.97;;;20.72;69.57
63731;BME280;49747;51.334;6.830;2022-10-31T09:13:13;101481.72;;;20.11;69.77
63731;BME280;49747;51.334;6.830;2022-10-31T09:16:00;101485.72;;;20.07;71.10
63731;BME280;49747;51.334;6.830;2022-10-31T09:18:27;101474.69;;;20.00;71.53
63731;BME280;49747;51.334;6.830;2022-10-31T09:20:58;101485.69;;;19.89;72.03
63731;BME280;49747;51.334;6.830;2022-10-31T09:23:27;101473.53;;;19.67;73.44
63731;BME280;49747;51.334;6.830;2022-10-31T09:25:54;101474.94;;;19.61;72.56
63731;BME280;49747;51.334;6.830;2022-10-31T09:28:30;101472.44;;;19.23;74.05
63731;BME280;49747;51.334;6.830;2022-10-31T09:31:03;101465.91;;;19.25;75.79
63731;BME280;49747;51.334;6.830;2022-10-31T09:33:48;101463.84;;;19.09;75.78
63731;BME280;49747;51.334;6.830;2022-10-31T09:36:33;101461.66;;;18.95;76.52
63731;BME280;49747;51.334;6.830;2022-10-31T09:38:59;101456.44;;;18.84;75.96
63731;BME280;49747;51.334;6.830;2022-10-31T09:47:04;101463.69;;;18.74;77.74
63731;BME280;49747;51.334;6.830;2022-10-31T09:50:00;101440.88;;;18.58;78.69
63731;BME280;49747;51.334;6.830;2022-10-31T09:52:31;101429.28;;;19.05;77.23
63731;BME280;49747;51.334;6.830;2022-10-31T09:55:08;101425.50;;;19.25;75.83
63731;BME280;49747;51.334;6.830;2022-10-31T09:57:40;101418.91;;;19.37;75.29
63731;BME280;49747;51.334;6.830;2022-10-31T10:00:15;101411.25;;;19.60;74.64
63731;BME280;49747;51.334;6.830;2022-10-31T10:02:49;101419.47;;;19.59;75.17
63731;BME280;49747;51.334;6.830;2022-10-31T10:05:28;101421.38;;;19.76;75.27
63731;BME280;49747;51.334;6.830;2022-10-31T10:08:05;101429.94;;;19.44;76.44
63731;BME280;49747;51.334;6.830;2022-10-31T10:11:06;101420.53;;;19.76;75.77
63731;BME280;49747;51.334;6.830;2022-10-31T10:16:55;101414.06;;;19.68;76.13
63731;BME280;49747;51.334;6.830;2022-10-31T10:25:23;101411.63;;;19.48;77.02
63731;BME280;49747;51.334;6.830;2022-10-31T10:28:05;101405.72;;;19.34;77.35
63731;BME280;49747;51.334;6.830;2022-10-31T10:30:43;101398.06;;;19.39;77.46
63731;BME280;49747;51.334;6.830;2022-10-31T10:33:14;101394.97;;;19.07;78.38
63731;BME280;49747;51.334;6.830;2022-10-31T10:35:50;101390.94;;;18.93;79.54
63731;BME280;49747;51.334;6.830;2022-10-31T10:38:33;101396.78;;;18.88;79.75
63731;BME280;49747;51.334;6.830;2022-10-31T10:41:05;101388.50;;;18.72;80.85
63731;BME280;49747;51.334;6.830;2022-10-31T10:43:37;101379.97;;;18.77;80.85
63731;BME280;49747;51.334;6.830;2022-10-31T10:49:06;101379.63;;;18.89;81.07
63731;BME280;49747;51.334;6.830;2022-10-31T10:54:45;101363.31;;;18.91;80.99
63731;BME280;49747;51.334;6.830;2022-10-31T11:00:17;101348.22;;;19.08;80.18
63731;BME280;49747;51.334;6.830;2022-10-31T11:02:44;101328.19;;;19.10;80.38
63731;BME280;49747;51.334;6.830;2022-10-31T11:05:25;101320.13;;;19.10;81.09
63731;BME280;49747;51.334;6.830;2022-10-31T11:07:52;101313.13;;;19.17;81.29
63731;BME280;49747;51.334;6.830;2022-10-31T11:10:18;101310.38;;;19.27;80.67
63731;BME280;49747;51.334;6.830;2022-10-31T11:12:58;101319.44;;;19.26;80.74
63731;BME280;49747;51.334;6.830;2022-10-31T11:15:27;101320.59;;;19.41;79.73
63731;BME280;49747;51.334;6.830;2022-10-31T11:17:56;101320.00;;;19.48;79.94
63731;BME280;49747;51.334;6.830;2022-10-31T11:20:24;101321.78;;;19.39;80.19
63731;BME280;49747;51.334;6.830;2022-10-31T11:23:16;101318.84;;;19.50;79.61
63731;BME280;49747;51.334;6.830;2022-10-31T11:25:56;101315.94;;;19.61;79.78
63731;BME280;49747;51.334;6.830;2022-10-31T11:28:23;101310.38;;;19.45;80.11
63731;BME280;49747;51.334;6.830;2022-10-31T11:30:55;101304.97;;;19.45;79.62
63731;BME280;49747;51.334;6.830;2022-10-31T11:33:39;101303.59;;;19.41;80.49
63731;BME280;49747;51.334;6.830;2022-10-31T11:36:17;101294.91;;;19.65;78.83
63731;BME280;49747;51.334;6.830;2022-10-31T11:38:46;101294.13;;;19.73;78.21
63731;BME280;49747;51.334;6.830;2022-10-31T11:41:18;101284.44;;;19.62;77.60
63731;BME280;49747;51.334;6.830;2022-10-31T11:43:53;101286.66;;;19.66;77.90
63731;BME280;49747;51.334;6.830;2022-10-31T11:46:25;101291.03;;;19.50;76.19
63731;BME280;49747;51.334;6.830;2022-10-31T11:48:56;101294.06;;;19.64;77.46
63731;BME280;49747;51.334;6.830;2022-10-31T11:51:26;101288.22;;;19.69;76.59
63731;BME280;49747;51.334;6.830;2022-10-31T11:53:59;101292.50;;;19.80;76.63
63731;BME280;49747;51.334;6.830;2022-10-31T11:56:41;101278.03;;;19.81;80.13
63731;BME280;49747;51.334;6.830;2022-10-31T11:59:27;101262.22;;;19.86;76.26
63731;BME280;49747;51.334;6.830;2022-10-31T12:01:57;101253.69;;;19.73;74.23
63731;BME280;49747;51.334;6.830;2022-10-31T12:04:34;101242.75;;;19.74;72.85
63731;BME280;49747;51.334;6.830;2022-10-31T12:07:03;101246.63;;;19.72;73.77
63731;BME280;49747;51.334;6.830;2022-10-31T12:09:33;101232.91;;;19.83;73.64
63731;BME280;49747;51.334;6.830;2022-10-31T12:12:36;101235.28;;;19.94;73.18
63731;BME280;49747;51.334;6.830;2022-10-31T12:15:13;101231.97;;;20.00;72.78
63731;BME280;49747;51.334;6.830;2022-10-31T12:17:52;101238.28;;;19.83;71.94
63731;BME280;49747;51.334;6.830;2022-10-31T12:20:35;101227.50;;;19.83;72.13
63731;BME280;49747;51.334;6.830;2022-10-31T12:24:00;101231.56;;;19.87;72.07
63731;BME280;49747;51.334;6.830;2022-10-31T12:29:22;101218.81;;;19.97;71.10
63731;BME280;49747;51.334;6.830;2022-10-31T12:32:10;101210.03;;;19.95;71.74
63731;BME280;49747;51.334;6.830;2022-10-31T12:40:22;101184.88;;;19.86;69.70
63731;BME280;49747;51.334;6.830;2022-10-31T12:51:09;101168.47;;;20.14;69.75
63731;BME280;49747;51.334;6.830;2022-10-31T12:53:54;101159.50;;;20.05;70.03
63731;BME280;49747;51.334;6.830;2022-10-31T12:59:28;101160.06;;;20.17;68.99
63731;BME280;49747;51.334;6.830;2022-10-31T13:02:00;101150.81;;;20.20;68.36
63731;BME280;49747;51.334;6.830;2022-10-31T13:07:19;101133.91;;;20.09;68.86
63731;BME280;49747;51.334;6.830;2022-10-31T13:12:41;101115.84;;;20.02;67.70
63731;BME280;49747;51.334;6.830;2022-10-31T13:15:16;101104.22;;;20.01;67.83
63731;BME280;49747;51.334;6.830;2022-10-31T13:17:48;101101.72;;;20.08;68.36
63731;BME280;49747;51.334;6.830;2022-10-31T13:20:27;101093.22;;;19.94;67.54
63731;BME280;49747;51.334;6.830;2022-10-31T13:23:17;101085.13;;;19.94;68.09
63731;BME280;49747;51.334;6.830;2022-10-31T13:26:15;101075.53;;;19.92;67.70
63731;BME280;49747;51.334;6.830;2022-10-31T13:29:02;101064.25;;;19.97;67.55
63731;BME280;49747;51.334;6.830;2022-10-31T13:31:30;101061.91;;;20.02;67.77
63731;BME280;49747;51.334;6.830;2022-10-31T13:34:02;101061.03;;;19.93;67.49
63731;BME280;49747;51.334;6.830;2022-10-31T13:36:47;101056.34;;;19.95;67.60
63731;BME280;49747;51.334;6.830;2022-10-31T13:41:49;101065.44;;;20.02;67.45
63731;BME280;49747;51.334;6.830;2022-10-31T13:44:25;101068.53;;;20.07;67.24
63731;BME280;49747;51.334;6.830;2022-10-31T13:46:57;101060.75;;;20.04;66.87
63731;BME280;49747;51.334;6.830;2022-10-31T13:54:42;101056.00;;;19.98;65.90
63731;BME280;49747;51.334;6.830;2022-10-31T13:57:21;101044.38;;;20.06;65.85
63731;BME280;49747;51.334;6.830;2022-10-31T13:59:51;101026.19;;;20.00;65.63
63731;BME280;49747;51.334;6.830;2022-10-31T14:02:26;101018.75;;;20.02;66.01
63731;BME280;49747;51.334;6.830;2022-10-31T14:05:05;101007.63;;;19.97;66.25
63731;BME280;49747;51.334;6.830;2022-10-31T14:07:43;101004.75;;;19.98;66.31
63731;BME280;49747;51.334;6.830;2022-10-31T14:10:26;101001.91;;;20.00;66.48
63731;BME280;49747;51.334;6.830;2022-10-31T14:15:32;101004.25;;;20.03;66.58
63731;BME280;49747;51.334;6.830;2022-10-31T14:18:00;101005.28;;;20.02;66.52
63731;BME280;49747;51.334;6.830;2022-10-31T14:20:40;101004.25;;;20.03;65.99
63731;BME280;49747;51.334;6.830;2022-10-31T14:28:47;100986.88;;;19.89;65.86
63731;BME280;49747;51.334;6.830;2022-10-31T14:33:54;100984.38;;;19.96;66.11
63731;BME280;49747;51.334;6.830;2022-10-31T14:36:36;100976.44;;;19.86;66.71
63731;BME280;49747;51.334;6.830;2022-10-31T14:39:18;100983.34;;;19.88;66.59
63731;BME280;49747;51.334;6.830;2022-10-31T14:41:55;100974.56;;;19.86;66.30
63731;BME280;49747;51.334;6.830;2022-10-31T14:44:51;100963.13;;;19.84;66.57
63731;BME280;49747;51.334;6.830;2022-10-31T14:52:26;100940.72;;;19.84;66.61
63731;BME280;49747;51.334;6.830;2022-10-31T14:54:56;100936.81;;;19.78;66.71
63731;BME280;49747;51.334;6.830;2022-10-31T14:57:36;100940.22;;;19.80;67.07
63731;BME280;49747;51.334;6.830;2022-10-31T15:00:27;100938.34;;;19.89;67.41
63731;BME280;49747;51.334;6.830;2022-10-31T15:05:22;100922.88;;;19.83;67.45